sensor_id;sensor_type;location;lat;lon;timestamp;pressure;altitude;pressure_sealevel;temperature;humidity
36304;BME280;22335;49.800;8.596;2023-08-06T00:06:23;99618.47;;;20.55;62.98
36304;BME280;22335;49.800;8.596;2023-08-06T00:13:07;99601.19;;;20.42;63.14
36304;BME280;22335;49.800;8.596;2023-08-06T00:19:52;99596.81;;;20.41;63.61
36304;BME280;22335;49.800;8.596;2023-08-06T00:26:35;99586.88;;;20.40;63.97
36304;BME280;22335;49.800;8.596;2023-08-06T00:33:18;99577.44;;;20.45;63.61
36304;BME280;22335;49.800;8.596;2023-08-06T00:40:05;99552.78;;;20.43;64.16
36304;BME280;22335;49.800;8.596;2023-08-06T00:46:51;99560.72;;;20.41;64.17
36304;BME280;22335;49.800;8.596;2023-08-06T00:53:36;99538.75;;;20.33;64.13
36304;BME280;22335;49.800;8.596;2023-08-06T01:00:22;99532.16;;;20.18;64.34
36304;BME280;22335;49.800;8.596;2023-08-06T01:07:14;99475.84;;;19.94;64.41
36304;BME280;22335;49.800;8.596;2023-08-06T01:14:10;99516.72;;;20.20;64.87
36304;BME280;22335;49.800;8.596;2023-08-06T01:21:00;99518.72;;;20.20;64.64
36304;BME280;22335;49.800;8.596;2023-08-06T01:27:48;99510.34;;;20.16;64.15
36304;BME280;22335;49.800;8.596;2023-08-06T01:34:33;99504.78;;;20.16;64.49
36304;BME280;22335;49.800;8.596;2023-08-06T01:41:19;99499.47;;;20.08;64.34
36304;BME280;22335;49.800;8.596;2023-08-06T01:48:02;99460.91;;;19.76;64.29
36304;BME280;22335;49.800;8.596;2023-08-06T01:54:46;99502.66;;;20.10;64.42
36304;BME280;22335;49.800;8.596;2023-08-06T02:01:31;99495.09;;;20.07;64.73
36304;BME280;22335;49.800;8.596;2023-08-06T02:08:15;99491.66;;;20.13;64.77
36304;BME280;22335;49.800;8.596;2023-08-06T02:14:58;99483.19;;;20.06;64.82
36304;BME280;22335;49.800;8.596;2023-08-06T02:21:45;99471.59;;;20.00;64.80
36304;BME280;22335;49.800;8.596;2023-08-06T02:28:29;99399.06;;;19.52;64.81
36304;BME280;22335;49.800;8.596;2023-08-06T02:35:14;99365.34;;;19.27;64.55
36304;BME280;22335;49.800;8.596;2023-08-06T02:41:59;99455.47;;;19.83;64.70
36304;BME280;22335;49.800;8.596;2023-08-06T03:03:49;99435.78;;;19.69;64.52
36304;BME280;22335;49.800;8.596;2023-08-06T03:10:40;99436.97;;;19.68;64.54
36304;BME280;22335;49.800;8.596;2023-08-06T03:17:24;99431.00;;;19.66;64.75
36304;BME280;22335;49.800;8.596;2023-08-06T03:24:09;99419.75;;;19.58;65.13
36304;BME280;22335;49.800;8.596;2023-08-06T03:31:01;99419.38;;;19.60;64.95
36304;BME280;22335;49.800;8.596;2023-08-06T03:37:51;99418.53;;;19.56;65.10
36304;BME280;22335;49.800;8.596;2023-08-06T03:44:37;99418.53;;;19.56;65.26
36304;BME280;22335;49.800;8.596;2023-08-06T03:51:23;99413.91;;;19.64;65.38
36304;BME280;22335;49.800;8.596;2023-08-06T03:58:07;99419.28;;;19.76;65.75
36304;BME280;22335;49.800;8.596;2023-08-06T04:04:52;99413.25;;;19.97;65.72
36304;BME280;22335;49.800;8.596;2023-08-06T04:11:36;99421.31;;;20.06;65.68
36304;BME280;22335;49.800;8.596;2023-08-06T04:18:19;99423.59;;;20.26;65.91
36304;BME280;22335;49.800;8.596;2023-08-06T04:25:06;99421.31;;;20.32;65.93
36304;BME280;22335;49.800;8.596;2023-08-06T04:31:49;99414.75;;;20.17;65.45
36304;BME280;22335;49.800;8.596;2023-08-06T04:38:33;99420.41;;;19.98;66.30
36304;BME280;22335;49.800;8.596;2023-08-06T04:45:18;99414.16;;;19.78;66.86
36304;BME280;22335;49.800;8.596;2023-08-06T04:52:02;99409.91;;;19.61;67.12
36304;BME280;22335;49.800;8.596;2023-08-06T04:58:46;99409.75;;;19.54;67.70
36304;BME280;22335;49.800;8.596;2023-08-06T05:05:31;99413.34;;;19.54;67.91
36304;BME280;22335;49.800;8.596;2023-08-06T05:12:15;99426.84;;;19.56;68.45
36304;BME280;22335;49.800;8.596;2023-08-06T05:18:58;99414.75;;;19.45;68.67
36304;BME280;22335;49.800;8.596;2023-08-06T05:25:43;99388.63;;;19.23;68.65
36304;BME280;22335;49.800;8.596;2023-08-06T05:32:27;99418.53;;;19.56;68.99
36304;BME280;22335;49.800;8.596;2023-08-06T05:39:10;99430.31;;;19.72;68.95
36304;BME280;22335;49.800;8.596;2023-08-06T05:45:55;99421.00;;;19.61;69.04
36304;BME280;22335;49.800;8.596;2023-08-06T05:52:39;99432.28;;;19.49;69.41
36304;BME280;22335;49.800;8.596;2023-08-06T05:59:23;99427.69;;;19.37;70.03
36304;BME280;22335;49.800;8.596;2023-08-06T06:06:08;99428.69;;;19.25;70.64
36304;BME280;22335;49.800;8.596;2023-08-06T06:12:51;99431.19;;;19.11;70.89
36304;BME280;22335;49.800;8.596;2023-08-06T06:19:35;99410.22;;;18.91;71.33
36304;BME280;22335;49.800;8.596;2023-08-06T06:26:19;99436.16;;;19.02;71.86
36304;BME280;22335;49.800;8.596;2023-08-06T06:33:06;99441.94;;;18.93;71.89
36304;BME280;22335;49.800;8.596;2023-08-06T06:39:49;99447.97;;;18.79;72.04
36304;BME280;22335;49.800;8.596;2023-08-06T06:46:35;99394.94;;;18.42;72.50
36304;BME280;22335;49.800;8.596;2023-08-06T06:53:20;99446.41;;;18.62;73.00
36304;BME280;22335;49.800;8.596;2023-08-06T07:00:09;99438.03;;;18.59;73.10
36304;BME280;22335;49.800;8.596;2023-08-06T07:06:54;99439.56;;;18.56;73.47
36304;BME280;22335;49.800;8.596;2023-08-06T07:13:38;99433.06;;;18.49;73.85
36304;BME280;22335;49.800;8.596;2023-08-06T07:20:21;99445.03;;;18.53;74.27
36304;BME280;22335;49.800;8.596;2023-08-06T07:27:06;99436.06;;;18.40;74.59
36304;BME280;22335;49.800;8.596;2023-08-06T07:33:50;99450.84;;;18.48;74.66
36304;BME280;22335;49.800;8.596;2023-08-06T07:40:35;99452.75;;;18.43;75.09
36304;BME280;22335;49.800;8.596;2023-08-06T07:47:20;99360.94;;;17.87;75.35
36304;BME280;22335;49.800;8.596;2023-08-06T07:54:04;99447.72;;;18.49;75.39
36304;BME280;22335;49.800;8.596;2023-08-06T08:00:48;99444.31;;;18.56;75.59
36304;BME280;22335;49.800;8.596;2023-08-06T08:07:33;99435.78;;;18.64;75.73
36304;BME280;22335;49.800;8.596;2023-08-06T08:14:16;99439.72;;;18.63;75.96
36304;BME280;22335;49.800;8.596;2023-08-06T08:21:00;99435.69;;;18.77;76.56
36304;BME280;22335;49.800;8.596;2023-08-06T08:27:45;99414.47;;;19.07;77.09
36304;BME280;22335;49.800;8.596;2023-08-06T08:34:29;99420.19;;;19.15;76.75
36304;BME280;22335;49.800;8.596;2023-08-06T08:41:12;99411.41;;;19.12;76.92
36304;BME280;22335;49.800;8.596;2023-08-06T08:47:58;99405.88;;;19.12;77.03
36304;BME280;22335;49.800;8.596;2023-08-06T08:54:43;99393.38;;;19.22;77.41
36304;BME280;22335;49.800;8.596;2023-08-06T09:01:28;99342.03;;;19.32;76.71
36304;BME280;22335;49.800;8.596;2023-08-06T09:08:15;99390.66;;;19.72;75.37
36304;BME280;22335;49.800;8.596;2023-08-06T09:15:03;99363.91;;;19.60;75.52
36304;BME280;22335;49.800;8.596;2023-08-06T09:21:48;99284.34;;;19.15;75.32
36304;BME280;22335;49.800;8.596;2023-08-06T09:28:39;99387.25;;;20.09;75.53
36304;BME280;22335;49.800;8.596;2023-08-06T09:35:27;99386.94;;;20.14;75.09
36304;BME280;22335;49.800;8.596;2023-08-06T09:42:15;99232.44;;;19.11;75.15
36304;BME280;22335;49.800;8.596;2023-08-06T09:49:00;99384.25;;;20.51;74.98
36304;BME280;22335;49.800;8.596;2023-08-06T09:55:45;99324.19;;;20.39;74.19
36304;BME280;22335;49.800;8.596;2023-08-06T10:02:29;99392.81;;;21.03;73.00
36304;BME280;22335;49.800;8.596;2023-08-06T10:09:14;99381.47;;;21.18;71.93
36304;BME280;22335;49.800;8.596;2023-08-06T10:15:57;99412.09;;;21.22;71.94
36304;BME280;22335;49.800;8.596;2023-08-06T10:22:42;99399.41;;;21.25;71.62
36304;BME280;22335;49.800;8.596;2023-08-06T10:29:37;99394.78;;;21.39;70.26
36304;BME280;22335;49.800;8.596;2023-08-06T10:36:21;99415.66;;;21.63;68.67
36304;BME280;22335;49.800;8.596;2023-08-06T10:43:05;99420.00;;;21.61;66.71
36304;BME280;22335;49.800;8.596;2023-08-06T10:49:52;99418.31;;;21.49;65.25
36304;BME280;22335;49.800;8.596;2023-08-06T10:56:40;99427.25;;;21.28;65.44
36304;BME280;22335;49.800;8.596;2023-08-06T11:03:24;99433.38;;;21.07;64.81
36304;BME280;22335;49.800;8.596;2023-08-06T11:10:11;99437.78;;;21.12;64.12
36304;BME280;22335;49.800;8.596;2023-08-06T11:16:55;99455.63;;;21.07;63.40
36304;BME280;22335;49.800;8.596;2023-08-06T11:23:39;99473.44;;;21.03;62.09
36304;BME280;22335;49.800;8.596;2023-08-06T11:30:24;99388.63;;;20.22;61.85
36304;BME280;22335;49.800;8.596;2023-08-06T11:37:09;99505.75;;;20.54;63.25
36304;BME280;22335;49.800;8.596;2023-08-06T11:43:52;99521.34;;;20.36;64.37
36304;BME280;22335;49.800;8.596;2023-08-06T11:50:38;99515.56;;;20.21;64.55
36304;BME280;22335;49.800;8.596;2023-08-06T11:57:21;99545.50;;;20.09;64.68
36304;BME280;22335;49.800;8.596;2023-08-06T12:04:05;99543.75;;;20.00;65.29
36304;BME280;22335;49.800;8.596;2023-08-06T12:10:50;99547.72;;;19.99;64.68
36304;BME280;22335;49.800;8.596;2023-08-06T12:17:35;99579.44;;;19.98;64.02
36304;BME280;22335;49.800;8.596;2023-08-06T12:24:20;99582.94;;;19.95;63.64
36304;BME280;22335;49.800;8.596;2023-08-06T12:31:05;99397.16;;;18.91;62.94
36304;BME280;22335;49.800;8.596;2023-08-06T12:37:48;99556.63;;;19.66;61.79
36304;BME280;22335;49.800;8.596;2023-08-06T12:44:35;99609.81;;;19.91;61.54
36304;BME280;22335;49.800;8.596;2023-08-06T12:51:20;99553.50;;;19.29;60.54
36304;BME280;22335;49.800;8.596;2023-08-06T12:58:04;99603.13;;;19.53;60.51
36304;BME280;22335;49.800;8.596;2023-08-06T13:04:47;99642.34;;;19.71;60.47
36304;BME280;22335;49.800;8.596;2023-08-06T13:11:32;99641.09;;;19.88;60.22
36304;BME280;22335;49.800;8.596;2023-08-06T13:18:16;99648.84;;;19.79;60.51
36304;BME280;22335;49.800;8.596;2023-08-06T13:25:00;99662.84;;;19.86;59.35
36304;BME280;22335;49.800;8.596;2023-08-06T13:31:45;99666.94;;;19.92;58.96
36304;BME280;22335;49.800;8.596;2023-08-06T13:38:28;99691.53;;;19.94;58.67
36304;BME280;22335;49.800;8.596;2023-08-06T13:45:12;99708.56;;;19.92;58.70
36304;BME280;22335;49.800;8.596;2023-08-06T13:51:57;99703.44;;;19.94;58.88
36304;BME280;22335;49.800;8.596;2023-08-06T13:58:48;99717.97;;;19.88;58.60
36304;BME280;22335;49.800;8.596;2023-08-06T14:05:32;99714.03;;;19.69;58.85
36304;BME280;22335;49.800;8.596;2023-08-06T14:12:17;99730.47;;;19.78;59.05
36304;BME280;22335;49.800;8.596;2023-08-06T14:19:03;99748.69;;;19.95;59.20
36304;BME280;22335;49.800;8.596;2023-08-06T14:25:47;99754.72;;;20.00;59.56
36304;BME280;22335;49.800;8.596;2023-08-06T14:32:32;99751.59;;;20.02;59.38
36304;BME280;22335;49.800;8.596;2023-08-06T14:39:16;99774.53;;;19.99;59.33
36304;BME280;22335;49.800;8.596;2023-08-06T14:46:00;99783.94;;;19.94;59.42
36304;BME280;22335;49.800;8.596;2023-08-06T14:52:45;99787.00;;;19.89;59.90
36304;BME280;22335;49.800;8.596;2023-08-06T14:59:29;99798.84;;;19.86;60.40
36304;BME280;22335;49.800;8.596;2023-08-06T15:06:12;99807.16;;;19.86;60.49
36304;BME280;22335;49.800;8.596;2023-08-06T15:12:57;99801.28;;;19.72;61.31
36304;BME280;22335;49.800;8.596;2023-08-06T15:19:40;99825.72;;;19.82;61.39
36304;BME280;22335;49.800;8.596;2023-08-06T15:26:25;99840.03;;;19.84;61.17
36304;BME280;22335;49.800;8.596;2023-08-06T15:33:11;99835.31;;;19.69;61.49
36304;BME280;22335;49.800;8.596;2023-08-06T15:39:54;99813.88;;;19.34;61.76
36304;BME280;22335;49.800;8.596;2023-08-06T15:46:38;99870.31;;;19.57;62.19
36304;BME280;22335;49.800;8.596;2023-08-06T15:53:22;99871.09;;;19.58;62.24
36304;BME280;22335;49.800;8.596;2023-08-06T16:00:09;99859.56;;;19.56;62.77
36304;BME280;22335;49.800;8.596;2023-08-06T16:06:53;99877.81;;;19.57;62.59
36304;BME280;22335;49.800;8.596;2023-08-06T16:13:38;99874.22;;;19.56;62.37
36304;BME280;22335;49.800;8.596;2023-08-06T16:20:21;99885.88;;;19.46;62.61
36304;BME280;22335;49.800;8.596;2023-08-06T16:27:05;99835.75;;;18.92;62.72
36304;BME280;22335;49.800;8.596;2023-08-06T16:33:50;99888.09;;;19.41;63.24
36304;BME280;22335;49.800;8.596;2023-08-06T16:40:33;99905.03;;;19.35;63.19
36304;BME280;22335;49.800;8.596;2023-08-06T16:47:17;99906.72;;;19.40;63.34
36304;BME280;22335;49.800;8.596;2023-08-06T16:54:02;99878.91;;;19.21;62.96
36304;BME280;22335;49.800;8.596;2023-08-06T17:00:45;99915.03;;;19.40;63.66
36304;BME280;22335;49.800;8.596;2023-08-06T17:07:30;99884.63;;;19.12;62.99
36304;BME280;22335;49.800;8.596;2023-08-06T17:14:15;99906.06;;;18.99;62.74
36304;BME280;22335;49.800;8.596;2023-08-06T17:20:59;99929.06;;;19.16;62.82
36304;BME280;22335;49.800;8.596;2023-08-06T17:27:43;99925.41;;;19.11;62.71
36304;BME280;22335;49.800;8.596;2023-08-06T17:34:27;99931.19;;;19.06;62.66
36304;BME280;22335;49.800;8.596;2023-08-06T17:41:11;99944.81;;;19.11;62.40
36304;BME280;22335;49.800;8.596;2023-08-06T17:47:54;99926.22;;;18.84;62.55
36304;BME280;22335;49.800;8.596;2023-08-06T17:54:39;99934.22;;;19.01;62.42
36304;BME280;22335;49.800;8.596;2023-08-06T18:01:24;99933.41;;;19.01;62.22
36304;BME280;22335;49.800;8.596;2023-08-06T18:08:07;99945.66;;;19.00;61.74
36304;BME280;22335;49.800;8.596;2023-08-06T18:14:54;99947.41;;;18.92;61.51
36304;BME280;22335;49.800;8.596;2023-08-06T18:21:40;99958.50;;;18.92;61.05
36304;BME280;22335;49.800;8.596;2023-08-06T18:28:25;99964.81;;;18.77;60.81
36304;BME280;22335;49.800;8.596;2023-08-06T18:35:10;99972.69;;;18.62;60.37
36304;BME280;22335;49.800;8.596;2023-08-06T18:41:53;99965.19;;;18.51;60.07
36304;BME280;22335;49.800;8.596;2023-08-06T18:48:37;99950.13;;;18.24;59.89
36304;BME280;22335;49.800;8.596;2023-08-06T18:55:22;99997.53;;;18.47;59.84
36304;BME280;22335;49.800;8.596;2023-08-06T19:02:06;99934.72;;;18.10;59.73
36304;BME280;22335;49.800;8.596;2023-08-06T19:08:49;100002.09;;;18.55;59.76
36304;BME280;22335;49.800;8.596;2023-08-06T19:15:34;99999.09;;;18.60;59.89
36304;BME280;22335;49.800;8.596;2023-08-06T19:22:18;99972.97;;;18.33;60.36
36304;BME280;22335;49.800;8.596;2023-08-06T19:29:02;99977.81;;;18.36;60.54
36304;BME280;22335;49.800;8.596;2023-08-06T19:35:48;100011.69;;;18.57;60.96
36304;BME280;22335;49.800;8.596;2023-08-06T19:42:33;99961.47;;;18.18;61.30
36304;BME280;22335;49.800;8.596;2023-08-06T19:49:16;100034.31;;;18.59;61.32
36304;BME280;22335;49.800;8.596;2023-08-06T19:56:02;99996.16;;;18.28;61.94
36304;BME280;22335;49.800;8.596;2023-08-06T20:02:46;100035.91;;;18.60;62.00
36304;BME280;22335;49.800;8.596;2023-08-06T20:09:30;100029.94;;;18.58;61.81
36304;BME280;22335;49.800;8.596;2023-08-06T20:16:14;100030.84;;;18.62;61.99
36304;BME280;22335;49.800;8.596;2023-08-06T20:22:58;100027.97;;;18.59;62.30
36304;BME280;22335;49.800;8.596;2023-08-06T20:29:41;100037.19;;;18.63;62.08
36304;BME280;22335;49.800;8.596;2023-08-06T20:36:26;100031.53;;;18.72;62.41
36304;BME280;22335;49.800;8.596;2023-08-06T20:43:10;100001.09;;;18.47;62.72
36304;BME280;22335;49.800;8.596;2023-08-06T20:49:54;100047.69;;;18.82;62.05
36304;BME280;22335;49.800;8.596;2023-08-06T20:56:39;99963.97;;;18.24;62.03
36304;BME280;22335;49.800;8.596;2023-08-06T21:03:23;100060.25;;;18.67;62.21
36304;BME280;22335;49.800;8.596;2023-08-06T21:10:07;100058.09;;;18.48;62.60
36304;BME280;22335;49.800;8.596;2023-08-06T21:16:52;100067.78;;;18.30;62.94
36304;BME280;22335;49.800;8.596;2023-08-06T21:23:36;100031.06;;;17.71;63.33
36304;BME280;22335;49.800;8.596;2023-08-06T21:30:21;100111.59;;;17.91;63.81
36304;BME280;22335;49.800;8.596;2023-08-06T21:37:06;100112.22;;;17.75;64.30
36304;BME280;22335;49.800;8.596;2023-08-06T21:43:50;100095.72;;;17.46;64.37
36304;BME280;22335;49.800;8.596;2023-08-06T21:50:34;100128.50;;;17.56;65.02
36304;BME280;22335;49.800;8.596;2023-08-06T21:57:19;100125.31;;;17.66;65.12
36304;BME280;22335;49.800;8.596;2023-08-06T22:04:03;100110.25;;;17.76;64.79
36304;BME280;22335;49.800;8.596;2023-08-06T22:10:47;100135.84;;;18.06;64.41
36304;BME280;22335;49.800;8.596;2023-08-06T22:17:32;100128.94;;;18.12;64.51
36304;BME280;22335;49.800;8.596;2023-08-06T22:24:16;100142.16;;;18.07;64.45
36304;BME280;22335;49.800;8.596;2023-08-06T22:31:00;100148.03;;;18.05;64.54
36304;BME280;22335;49.800;8.596;2023-08-06T22:37:45;100148.75;;;18.14;64.34
36304;BME280;22335;49.800;8.596;2023-08-06T22:44:29;100113.56;;;18.03;64.47
36304;BME280;22335;49.800;8.596;2023-08-06T22:51:13;100153.72;;;18.33;63.98
36304;BME280;22335;49.800;8.596;2023-08-06T22:57:59;100158.25;;;18.38;63.93
36304;BME280;22335;49.800;8.596;2023-08-06T23:04:43;100116.81;;;18.17;63.79
36304;BME280;22335;49.800;8.596;2023-08-06T23:11:27;100168.53;;;18.62;63.63
36304;BME280;22335;49.800;8.596;2023-08-06T23:18:12;100164.72;;;18.66;63.03
36304;BME280;22335;49.800;8.596;2023-08-06T23:24:56;100178.56;;;18.66;62.78
36304;BME280;22335;49.800;8.596;2023-08-06T23:31:39;100120.28;;;18.26;63.11
36304;BME280;22335;49.800;8.596;2023-08-06T23:38:24;100180.31;;;18.59;63.03
36304;BME280;22335;49.800;8.596;2023-08-06T23:45:08;100147.19;;;18.38;62.75
36304;BME280;22335;49.800;8.596;2023-08-06T23:51:52;100193.50;;;18.74;62.55
36304;BME280;22335;49.800;8.596;2023-08-06T23:58:37;100180.47;;;18.75;62.03
